Westminster, California
Current Conditions -  °F | °C
As of 8:58 AM on Friday 19 Dec 2014 (Local Time) from KSLI Reporting Station
Few Clouds Few Clouds  
Wind Chill: 55°   Ceiling: Unl
Heat Index: 55°   Visibility: 10mi
Dew Point: 49°   Wind: 5mph
Humidity: 78%   Direction: 50°NE
Pressure: 30.24"   Gusts: NA
Location:  33.76°N, 117.98°W
Report Text: KSLI 191658Z 05004KT 10SM FEW250 13/09 A3024 RMK AO2A SLP243 T01300093
Loading
Personal Weather Stations






























Interactive Weather Map New forecast layout! Learn more

10-Day Weather Forecast

Advertisements
Track Severe Weather on mobile